sensor_id;sensor_type;location;lat;lon;timestamp;P1;durP1;ratioP1;P2;durP2;ratioP2
18610;SDS011;9435;52.122;5.502;2023-03-13T00:01:51;31.60;;;5.18;;
18610;SDS011;9435;52.122;5.502;2023-03-13T00:04:18;31.30;;;5.90;;
18610;SDS011;9435;52.122;5.502;2023-03-13T00:06:45;30.33;;;4.93;;
18610;SDS011;9435;52.122;5.502;2023-03-13T00:09:13;30.92;;;5.97;;
18610;SDS011;9435;52.122;5.502;2023-03-13T00:11:41;28.73;;;6.15;;
18610;SDS011;9435;52.122;5.502;2023-03-13T00:14:09;30.30;;;5.70;;
18610;SDS011;9435;52.122;5.502;2023-03-13T00:16:38;31.27;;;5.63;;
18610;SDS011;9435;52.122;5.502;2023-03-13T00:19:05;30.05;;;5.35;;
18610;SDS011;9435;52.122;5.502;2023-03-13T00:21:33;31.63;;;5.85;;
18610;SDS011;9435;52.122;5.502;2023-03-13T00:24:01;26.92;;;5.70;;
18610;SDS011;9435;52.122;5.502;2023-03-13T00:26:29;33.70;;;5.90;;
18610;SDS011;9435;52.122;5.502;2023-03-13T00:28:56;33.95;;;5.30;;
18610;SDS011;9435;52.122;5.502;2023-03-13T00:31:24;32.72;;;5.78;;
18610;SDS011;9435;52.122;5.502;2023-03-13T00:33:55;34.78;;;5.40;;
18610;SDS011;9435;52.122;5.502;2023-03-13T00:36:25;28.23;;;5.15;;
18610;SDS011;9435;52.122;5.502;2023-03-13T00:38:53;28.65;;;5.28;;
18610;SDS011;9435;52.122;5.502;2023-03-13T00:41:22;30.90;;;5.47;;
18610;SDS011;9435;52.122;5.502;2023-03-13T00:43:50;43.55;;;6.53;;
18610;SDS011;9435;52.122;5.502;2023-03-13T00:46:18;36.17;;;6.05;;
18610;SDS011;9435;52.122;5.502;2023-03-13T00:48:46;27.48;;;4.93;;
18610;SDS011;9435;52.122;5.502;2023-03-13T00:51:15;28.92;;;5.63;;
18610;SDS011;9435;52.122;5.502;2023-03-13T00:53:43;34.90;;;5.70;;
18610;SDS011;9435;52.122;5.502;2023-03-13T00:56:11;28.50;;;5.55;;
18610;SDS011;9435;52.122;5.502;2023-03-13T00:58:40;33.38;;;5.97;;
18610;SDS011;9435;52.122;5.502;2023-03-13T01:01:09;33.97;;;5.72;;
18610;SDS011;9435;52.122;5.502;2023-03-13T01:03:38;26.08;;;5.78;;
18610;SDS011;9435;52.122;5.502;2023-03-13T01:06:06;33.17;;;6.45;;
18610;SDS011;9435;52.122;5.502;2023-03-13T01:08:36;33.13;;;5.72;;
18610;SDS011;9435;52.122;5.502;2023-03-13T01:11:04;36.47;;;6.40;;
18610;SDS011;9435;52.122;5.502;2023-03-13T01:13:32;30.40;;;7.03;;
18610;SDS011;9435;52.122;5.502;2023-03-13T01:16:01;29.25;;;6.38;;
18610;SDS011;9435;52.122;5.502;2023-03-13T01:18:28;29.67;;;6.25;;
18610;SDS011;9435;52.122;5.502;2023-03-13T01:20:56;26.90;;;6.97;;
18610;SDS011;9435;52.122;5.502;2023-03-13T01:23:23;25.05;;;6.90;;
18610;SDS011;9435;52.122;5.502;2023-03-13T01:25:52;34.25;;;7.30;;
18610;SDS011;9435;52.122;5.502;2023-03-13T01:28:19;27.38;;;7.32;;
18610;SDS011;9435;52.122;5.502;2023-03-13T01:30:47;22.08;;;6.90;;
18610;SDS011;9435;52.122;5.502;2023-03-13T01:33:14;22.63;;;6.47;;
18610;SDS011;9435;52.122;5.502;2023-03-13T01:35:41;30.48;;;6.90;;
18610;SDS011;9435;52.122;5.502;2023-03-13T01:38:08;25.23;;;6.78;;
18610;SDS011;9435;52.122;5.502;2023-03-13T01:40:39;21.45;;;6.55;;
18610;SDS011;9435;52.122;5.502;2023-03-13T01:43:17;27.77;;;7.13;;
18610;SDS011;9435;52.122;5.502;2023-03-13T01:45:53;25.40;;;6.65;;
18610;SDS011;9435;52.122;5.502;2023-03-13T01:48:32;21.05;;;7.00;;
18610;SDS011;9435;52.122;5.502;2023-03-13T01:51:04;22.13;;;6.72;;
18610;SDS011;9435;52.122;5.502;2023-03-13T01:53:34;23.75;;;6.90;;
18610;SDS011;9435;52.122;5.502;2023-03-13T01:56:05;21.25;;;6.75;;
18610;SDS011;9435;52.122;5.502;2023-03-13T01:58:37;25.42;;;7.20;;
18610;SDS011;9435;52.122;5.502;2023-03-13T02:01:04;24.35;;;6.95;;
18610;SDS011;9435;52.122;5.502;2023-03-13T02:03:32;21.88;;;7.00;;
18610;SDS011;9435;52.122;5.502;2023-03-13T02:06:00;21.27;;;7.43;;
18610;SDS011;9435;52.122;5.502;2023-03-13T02:08:30;27.45;;;7.50;;
18610;SDS011;9435;52.122;5.502;2023-03-13T02:11:03;22.60;;;7.32;;
18610;SDS011;9435;52.122;5.502;2023-03-13T02:13:40;21.58;;;7.65;;
18610;SDS011;9435;52.122;5.502;2023-03-13T02:16:08;24.33;;;7.75;;
18610;SDS011;9435;52.122;5.502;2023-03-13T02:18:36;21.88;;;7.55;;
18610;SDS011;9435;52.122;5.502;2023-03-13T02:21:07;24.38;;;7.95;;
18610;SDS011;9435;52.122;5.502;2023-03-13T02:23:40;22.20;;;7.60;;
18610;SDS011;9435;52.122;5.502;2023-03-13T02:26:17;18.02;;;8.10;;
18610;SDS011;9435;52.122;5.502;2023-03-13T02:28:44;25.67;;;8.10;;
18610;SDS011;9435;52.122;5.502;2023-03-13T02:31:11;22.33;;;8.93;;
18610;SDS011;9435;52.122;5.502;2023-03-13T02:33:39;24.35;;;8.63;;
18610;SDS011;9435;52.122;5.502;2023-03-13T02:36:08;23.27;;;8.77;;
18610;SDS011;9435;52.122;5.502;2023-03-13T02:38:37;27.77;;;9.00;;
18610;SDS011;9435;52.122;5.502;2023-03-13T02:41:08;24.05;;;9.65;;
18610;SDS011;9435;52.122;5.502;2023-03-13T02:43:38;23.67;;;8.93;;
18610;SDS011;9435;52.122;5.502;2023-03-13T02:46:06;24.98;;;9.88;;
18610;SDS011;9435;52.122;5.502;2023-03-13T02:48:35;26.08;;;10.05;;
18610;SDS011;9435;52.122;5.502;2023-03-13T02:51:05;23.80;;;10.25;;
18610;SDS011;9435;52.122;5.502;2023-03-13T02:53:38;26.40;;;10.65;;
18610;SDS011;9435;52.122;5.502;2023-03-13T02:56:07;25.10;;;10.90;;
18610;SDS011;9435;52.122;5.502;2023-03-13T02:58:34;30.33;;;11.73;;
18610;SDS011;9435;52.122;5.502;2023-03-13T03:01:05;29.55;;;12.02;;
18610;SDS011;9435;52.122;5.502;2023-03-13T03:03:33;32.88;;;13.02;;
18610;SDS011;9435;52.122;5.502;2023-03-13T03:06:01;35.15;;;13.68;;
18610;SDS011;9435;52.122;5.502;2023-03-13T03:08:28;34.38;;;14.48;;
18610;SDS011;9435;52.122;5.502;2023-03-13T03:10:56;38.28;;;14.57;;
18610;SDS011;9435;52.122;5.502;2023-03-13T03:13:23;38.53;;;15.73;;
18610;SDS011;9435;52.122;5.502;2023-03-13T03:15:51;35.08;;;14.50;;
18610;SDS011;9435;52.122;5.502;2023-03-13T03:18:18;36.88;;;16.02;;
18610;SDS011;9435;52.122;5.502;2023-03-13T03:20:45;37.92;;;15.98;;
18610;SDS011;9435;52.122;5.502;2023-03-13T03:23:12;35.78;;;15.55;;
18610;SDS011;9435;52.122;5.502;2023-03-13T03:25:39;39.72;;;16.77;;
18610;SDS011;9435;52.122;5.502;2023-03-13T03:28:06;38.05;;;16.70;;
18610;SDS011;9435;52.122;5.502;2023-03-13T03:30:33;37.60;;;16.77;;
18610;SDS011;9435;52.122;5.502;2023-03-13T03:33:02;41.22;;;18.20;;
18610;SDS011;9435;52.122;5.502;2023-03-13T03:35:29;37.92;;;17.30;;
18610;SDS011;9435;52.122;5.502;2023-03-13T03:37:58;41.78;;;17.73;;
18610;SDS011;9435;52.122;5.502;2023-03-13T03:40:25;42.53;;;18.20;;
18610;SDS011;9435;52.122;5.502;2023-03-13T03:42:54;43.20;;;18.10;;
18610;SDS011;9435;52.122;5.502;2023-03-13T03:45:21;44.92;;;18.52;;
18610;SDS011;9435;52.122;5.502;2023-03-13T03:47:48;39.70;;;17.98;;
18610;SDS011;9435;52.122;5.502;2023-03-13T03:50:16;42.67;;;19.25;;
18610;SDS011;9435;52.122;5.502;2023-03-13T03:52:43;42.00;;;18.63;;
18610;SDS011;9435;52.122;5.502;2023-03-13T03:55:11;43.15;;;19.10;;
18610;SDS011;9435;52.122;5.502;2023-03-13T03:57:38;43.35;;;18.73;;
18610;SDS011;9435;52.122;5.502;2023-03-13T04:00:05;44.70;;;18.65;;
18610;SDS011;9435;52.122;5.502;2023-03-13T04:02:34;37.17;;;17.00;;
18610;SDS011;9435;52.122;5.502;2023-03-13T04:05:01;41.38;;;17.90;;
18610;SDS011;9435;52.122;5.502;2023-03-13T04:07:30;38.38;;;17.13;;
18610;SDS011;9435;52.122;5.502;2023-03-13T04:09:58;37.85;;;16.98;;
18610;SDS011;9435;52.122;5.502;2023-03-13T04:12:25;33.20;;;16.48;;
18610;SDS011;9435;52.122;5.502;2023-03-13T04:14:52;30.30;;;15.48;;
18610;SDS011;9435;52.122;5.502;2023-03-13T04:17:19;32.47;;;15.55;;
18610;SDS011;9435;52.122;5.502;2023-03-13T04:19:46;35.85;;;16.40;;
18610;SDS011;9435;52.122;5.502;2023-03-13T04:22:13;33.05;;;15.45;;
18610;SDS011;9435;52.122;5.502;2023-03-13T04:24:41;32.95;;;14.70;;
18610;SDS011;9435;52.122;5.502;2023-03-13T04:27:08;31.38;;;14.65;;
18610;SDS011;9435;52.122;5.502;2023-03-13T04:29:35;31.25;;;14.35;;
18610;SDS011;9435;52.122;5.502;2023-03-13T04:32:02;32.00;;;14.23;;
18610;SDS011;9435;52.122;5.502;2023-03-13T04:34:30;29.45;;;13.50;;
18610;SDS011;9435;52.122;5.502;2023-03-13T04:36:57;26.33;;;13.57;;
18610;SDS011;9435;52.122;5.502;2023-03-13T04:39:24;24.85;;;13.63;;
18610;SDS011;9435;52.122;5.502;2023-03-13T04:41:53;26.98;;;13.23;;
18610;SDS011;9435;52.122;5.502;2023-03-13T04:44:21;26.17;;;12.55;;
18610;SDS011;9435;52.122;5.502;2023-03-13T04:46:48;23.52;;;13.13;;
18610;SDS011;9435;52.122;5.502;2023-03-13T04:49:15;24.15;;;12.13;;
18610;SDS011;9435;52.122;5.502;2023-03-13T04:51:46;25.70;;;11.73;;
18610;SDS011;9435;52.122;5.502;2023-03-13T04:54:14;26.13;;;11.00;;
18610;SDS011;9435;52.122;5.502;2023-03-13T04:56:41;24.85;;;10.70;;
18610;SDS011;9435;52.122;5.502;2023-03-13T04:59:10;20.80;;;9.88;;
18610;SDS011;9435;52.122;5.502;2023-03-13T05:01:38;17.85;;;9.85;;
18610;SDS011;9435;52.122;5.502;2023-03-13T05:04:05;26.33;;;9.75;;
18610;SDS011;9435;52.122;5.502;2023-03-13T05:06:32;16.63;;;8.77;;
18610;SDS011;9435;52.122;5.502;2023-03-13T05:08:59;16.75;;;8.35;;
18610;SDS011;9435;52.122;5.502;2023-03-13T05:11:26;16.50;;;7.82;;
18610;SDS011;9435;52.122;5.502;2023-03-13T05:13:54;17.40;;;7.40;;
18610;SDS011;9435;52.122;5.502;2023-03-13T05:16:22;16.98;;;7.13;;
18610;SDS011;9435;52.122;5.502;2023-03-13T05:18:49;19.45;;;6.82;;
18610;SDS011;9435;52.122;5.502;2023-03-13T05:21:16;16.10;;;6.93;;
18610;SDS011;9435;52.122;5.502;2023-03-13T05:23:43;17.60;;;6.05;;
18610;SDS011;9435;52.122;5.502;2023-03-13T05:26:10;12.82;;;5.97;;
18610;SDS011;9435;52.122;5.502;2023-03-13T05:28:37;12.68;;;5.75;;
18610;SDS011;9435;52.122;5.502;2023-03-13T05:31:04;16.08;;;5.70;;
18610;SDS011;9435;52.122;5.502;2023-03-13T05:33:33;14.10;;;5.65;;
18610;SDS011;9435;52.122;5.502;2023-03-13T05:36:00;12.40;;;5.15;;
18610;SDS011;9435;52.122;5.502;2023-03-13T05:38:27;13.57;;;5.03;;
18610;SDS011;9435;52.122;5.502;2023-03-13T05:40:54;11.45;;;4.60;;
18610;SDS011;9435;52.122;5.502;2023-03-13T05:43:21;11.95;;;4.22;;
18610;SDS011;9435;52.122;5.502;2023-03-13T05:45:48;10.52;;;4.10;;
18610;SDS011;9435;52.122;5.502;2023-03-13T05:48:15;9.73;;;4.00;;
18610;SDS011;9435;52.122;5.502;2023-03-13T05:50:43;10.80;;;4.13;;
18610;SDS011;9435;52.122;5.502;2023-03-13T05:53:11;13.25;;;4.38;;
18610;SDS011;9435;52.122;5.502;2023-03-13T05:55:38;11.88;;;4.65;;
18610;SDS011;9435;52.122;5.502;2023-03-13T05:58:05;10.90;;;4.05;;
18610;SDS011;9435;52.122;5.502;2023-03-13T06:00:32;10.35;;;3.75;;
18610;SDS011;9435;52.122;5.502;2023-03-13T06:02:59;11.25;;;3.80;;
18610;SDS011;9435;52.122;5.502;2023-03-13T06:05:26;17.02;;;4.30;;
18610;SDS011;9435;52.122;5.502;2023-03-13T06:07:55;11.93;;;3.72;;
18610;SDS011;9435;52.122;5.502;2023-03-13T06:10:22;10.27;;;3.90;;
18610;SDS011;9435;52.122;5.502;2023-03-13T06:12:52;10.40;;;3.80;;
18610;SDS011;9435;52.122;5.502;2023-03-13T06:15:20;14.27;;;4.03;;
18610;SDS011;9435;52.122;5.502;2023-03-13T06:17:47;14.23;;;3.80;;
18610;SDS011;9435;52.122;5.502;2023-03-13T06:20:15;11.23;;;3.92;;
18610;SDS011;9435;52.122;5.502;2023-03-13T06:22:42;10.85;;;4.15;;
18610;SDS011;9435;52.122;5.502;2023-03-13T06:25:11;10.25;;;3.58;;
18610;SDS011;9435;52.122;5.502;2023-03-13T06:27:39;11.73;;;4.07;;
18610;SDS011;9435;52.122;5.502;2023-03-13T06:30:08;10.52;;;3.90;;
18610;SDS011;9435;52.122;5.502;2023-03-13T06:32:35;14.45;;;4.20;;
18610;SDS011;9435;52.122;5.502;2023-03-13T06:35:03;14.90;;;4.80;;
18610;SDS011;9435;52.122;5.502;2023-03-13T06:37:31;13.30;;;4.10;;
18610;SDS011;9435;52.122;5.502;2023-03-13T06:39:58;11.32;;;4.13;;
18610;SDS011;9435;52.122;5.502;2023-03-13T06:42:27;12.43;;;4.25;;
18610;SDS011;9435;52.122;5.502;2023-03-13T06:44:54;10.93;;;4.18;;
18610;SDS011;9435;52.122;5.502;2023-03-13T06:47:21;12.13;;;3.92;;
18610;SDS011;9435;52.122;5.502;2023-03-13T06:49:48;10.57;;;4.07;;
18610;SDS011;9435;52.122;5.502;2023-03-13T06:52:15;11.25;;;4.05;;
18610;SDS011;9435;52.122;5.502;2023-03-13T06:54:42;8.55;;;3.63;;
18610;SDS011;9435;52.122;5.502;2023-03-13T06:57:09;14.00;;;3.78;;
18610;SDS011;9435;52.122;5.502;2023-03-13T06:59:38;10.32;;;3.80;;
18610;SDS011;9435;52.122;5.502;2023-03-13T07:02:05;10.40;;;3.63;;
18610;SDS011;9435;52.122;5.502;2023-03-13T07:04:34;12.40;;;3.50;;
18610;SDS011;9435;52.122;5.502;2023-03-13T07:07:01;11.50;;;3.90;;
18610;SDS011;9435;52.122;5.502;2023-03-13T07:09:28;10.30;;;3.80;;
18610;SDS011;9435;52.122;5.502;2023-03-13T07:11:55;11.73;;;4.10;;
18610;SDS011;9435;52.122;5.502;2023-03-13T07:14:23;12.40;;;3.50;;
18610;SDS011;9435;52.122;5.502;2023-03-13T07:16:52;9.82;;;3.55;;
18610;SDS011;9435;52.122;5.502;2023-03-13T07:19:19;10.85;;;3.53;;
18610;SDS011;9435;52.122;5.502;2023-03-13T07:21:46;12.90;;;3.78;;
18610;SDS011;9435;52.122;5.502;2023-03-13T07:24:13;11.57;;;4.00;;
18610;SDS011;9435;52.122;5.502;2023-03-13T07:26:40;13.10;;;3.42;;
18610;SDS011;9435;52.122;5.502;2023-03-13T07:29:08;10.82;;;3.47;;
18610;SDS011;9435;52.122;5.502;2023-03-13T07:31:35;7.70;;;2.88;;
18610;SDS011;9435;52.122;5.502;2023-03-13T07:34:04;11.70;;;3.70;;
18610;SDS011;9435;52.122;5.502;2023-03-13T07:36:31;11.75;;;3.83;;
18610;SDS011;9435;52.122;5.502;2023-03-13T07:38:59;14.75;;;4.43;;
18610;SDS011;9435;52.122;5.502;2023-03-13T07:41:26;14.20;;;3.78;;
18610;SDS011;9435;52.122;5.502;2023-03-13T07:43:53;11.93;;;4.25;;
18610;SDS011;9435;52.122;5.502;2023-03-13T07:46:20;13.07;;;4.13;;
18610;SDS011;9435;52.122;5.502;2023-03-13T07:48:47;11.73;;;4.10;;
18610;SDS011;9435;52.122;5.502;2023-03-13T07:51:17;13.60;;;4.57;;
18610;SDS011;9435;52.122;5.502;2023-03-13T07:53:45;11.25;;;4.38;;
18610;SDS011;9435;52.122;5.502;2023-03-13T07:56:13;13.35;;;5.00;;
18610;SDS011;9435;52.122;5.502;2023-03-13T07:58:42;13.45;;;4.63;;
18610;SDS011;9435;52.122;5.502;2023-03-13T08:01:09;13.57;;;4.80;;
18610;SDS011;9435;52.122;5.502;2023-03-13T08:03:38;13.75;;;5.40;;
18610;SDS011;9435;52.122;5.502;2023-03-13T08:06:06;11.48;;;4.95;;
18610;SDS011;9435;52.122;5.502;2023-03-13T08:08:35;13.93;;;4.88;;
18610;SDS011;9435;52.122;5.502;2023-03-13T08:11:04;10.48;;;4.20;;
18610;SDS011;9435;52.122;5.502;2023-03-13T08:13:32;11.07;;;4.35;;
18610;SDS011;9435;52.122;5.502;2023-03-13T08:16:01;10.70;;;4.32;;
18610;SDS011;9435;52.122;5.502;2023-03-13T08:18:29;10.98;;;4.40;;
18610;SDS011;9435;52.122;5.502;2023-03-13T08:21:00;10.82;;;4.15;;
18610;SDS011;9435;52.122;5.502;2023-03-13T08:23:28;12.32;;;4.93;;
18610;SDS011;9435;52.122;5.502;2023-03-13T08:25:56;14.15;;;5.15;;
18610;SDS011;9435;52.122;5.502;2023-03-13T08:28:27;13.73;;;5.22;;
18610;SDS011;9435;52.122;5.502;2023-03-13T08:30:54;12.57;;;4.80;;
18610;SDS011;9435;52.122;5.502;2023-03-13T08:33:22;15.43;;;5.18;;
18610;SDS011;9435;52.122;5.502;2023-03-13T08:35:49;11.57;;;4.90;;
18610;SDS011;9435;52.122;5.502;2023-03-13T08:38:16;15.55;;;5.13;;
18610;SDS011;9435;52.122;5.502;2023-03-13T08:40:43;11.25;;;4.55;;
18610;SDS011;9435;52.122;5.502;2023-03-13T08:43:11;9.25;;;4.60;;
18610;SDS011;9435;52.122;5.502;2023-03-13T08:45:38;10.15;;;4.30;;
18610;SDS011;9435;52.122;5.502;2023-03-13T08:48:05;9.70;;;3.85;;
18610;SDS011;9435;52.122;5.502;2023-03-13T08:50:32;10.55;;;4.10;;
18610;SDS011;9435;52.122;5.502;2023-03-13T08:52:59;12.02;;;4.22;;
18610;SDS011;9435;52.122;5.502;2023-03-13T08:55:27;9.85;;;3.55;;
18610;SDS011;9435;52.122;5.502;2023-03-13T08:57:54;10.02;;;3.50;;
18610;SDS011;9435;52.122;5.502;2023-03-13T09:00:23;10.73;;;3.47;;
18610;SDS011;9435;52.122;5.502;2023-03-13T09:02:50;7.30;;;3.20;;
18610;SDS011;9435;52.122;5.502;2023-03-13T09:05:17;9.82;;;3.10;;
18610;SDS011;9435;52.122;5.502;2023-03-13T09:07:44;10.55;;;3.15;;
18610;SDS011;9435;52.122;5.502;2023-03-13T09:10:11;7.18;;;2.90;;
18610;SDS011;9435;52.122;5.502;2023-03-13T09:12:38;9.40;;;2.55;;
18610;SDS011;9435;52.122;5.502;2023-03-13T09:15:06;9.77;;;3.00;;
18610;SDS011;9435;52.122;5.502;2023-03-13T09:17:35;11.95;;;2.60;;
18610;SDS011;9435;52.122;5.502;2023-03-13T09:20:02;8.07;;;2.58;;
18610;SDS011;9435;52.122;5.502;2023-03-13T09:22:30;9.18;;;2.47;;
18610;SDS011;9435;52.122;5.502;2023-03-13T09:24:57;13.93;;;2.75;;
18610;SDS011;9435;52.122;5.502;2023-03-13T09:27:24;10.57;;;2.28;;
18610;SDS011;9435;52.122;5.502;2023-03-13T09:29:52;11.10;;;2.33;;
18610;SDS011;9435;52.122;5.502;2023-03-13T09:32:19;7.63;;;2.10;;
18610;SDS011;9435;52.122;5.502;2023-03-13T09:34:48;7.75;;;2.00;;
18610;SDS011;9435;52.122;5.502;2023-03-13T09:37:15;7.18;;;1.90;;
18610;SDS011;9435;52.122;5.502;2023-03-13T09:39:42;7.80;;;2.08;;
18610;SDS011;9435;52.122;5.502;2023-03-13T09:42:11;8.23;;;2.08;;
18610;SDS011;9435;52.122;5.502;2023-03-13T09:44:41;9.35;;;1.98;;
18610;SDS011;9435;52.122;5.502;2023-03-13T09:47:12;6.95;;;1.80;;
18610;SDS011;9435;52.122;5.502;2023-03-13T09:49:49;7.03;;;1.67;;
18610;SDS011;9435;52.122;5.502;2023-03-13T09:52:21;5.90;;;1.85;;
18610;SDS011;9435;52.122;5.502;2023-03-13T09:54:51;4.95;;;1.60;;
18610;SDS011;9435;52.122;5.502;2023-03-13T09:57:27;6.68;;;1.90;;
18610;SDS011;9435;52.122;5.502;2023-03-13T09:59:59;5.07;;;1.50;;
18610;SDS011;9435;52.122;5.502;2023-03-13T10:02:35;6.35;;;1.50;;
18610;SDS011;9435;52.122;5.502;2023-03-13T10:05:09;7.68;;;1.60;;
18610;SDS011;9435;52.122;5.502;2023-03-13T10:07:41;7.72;;;1.58;;
18610;SDS011;9435;52.122;5.502;2023-03-13T10:10:11;8.48;;;1.77;;
18610;SDS011;9435;52.122;5.502;2023-03-13T10:12:42;6.10;;;1.52;;
18610;SDS011;9435;52.122;5.502;2023-03-13T10:15:33;5.95;;;1.20;;
18610;SDS011;9435;52.122;5.502;2023-03-13T10:18:10;4.82;;;1.40;;
18610;SDS011;9435;52.122;5.502;2023-03-13T10:20:42;3.88;;;1.30;;
18610;SDS011;9435;52.122;5.502;2023-03-13T10:23:12;5.78;;;1.50;;
18610;SDS011;9435;52.122;5.502;2023-03-13T10:25:41;4.25;;;1.50;;
18610;SDS011;9435;52.122;5.502;2023-03-13T10:28:09;5.78;;;1.48;;
18610;SDS011;9435;52.122;5.502;2023-03-13T10:30:39;5.50;;;1.50;;
18610;SDS011;9435;52.122;5.502;2023-03-13T10:33:17;5.57;;;1.50;;
18610;SDS011;9435;52.122;5.502;2023-03-13T10:35:49;5.15;;;1.40;;
18610;SDS011;9435;52.122;5.502;2023-03-13T10:38:26;4.90;;;1.70;;
18610;SDS011;9435;52.122;5.502;2023-03-13T10:40:55;5.35;;;1.60;;
18610;SDS011;9435;52.122;5.502;2023-03-13T10:43:24;6.55;;;1.77;;
18610;SDS011;9435;52.122;5.502;2023-03-13T10:45:52;5.40;;;1.90;;
18610;SDS011;9435;52.122;5.502;2023-03-13T10:48:20;6.57;;;1.70;;
18610;SDS011;9435;52.122;5.502;2023-03-13T10:50:50;5.72;;;1.63;;
18610;SDS011;9435;52.122;5.502;2023-03-13T10:53:25;6.40;;;1.70;;
18610;SDS011;9435;52.122;5.502;2023-03-13T10:55:59;6.57;;;1.42;;
18610;SDS011;9435;52.122;5.502;2023-03-13T10:58:36;6.80;;;1.58;;
18610;SDS011;9435;52.122;5.502;2023-03-13T11:01:14;4.95;;;1.73;;
18610;SDS011;9435;52.122;5.502;2023-03-13T11:03:44;8.20;;;1.52;;
18610;SDS011;9435;52.122;5.502;2023-03-13T11:06:24;7.97;;;1.60;;
18610;SDS011;9435;52.122;5.502;2023-03-13T11:08:58;7.22;;;1.58;;
18610;SDS011;9435;52.122;5.502;2023-03-13T11:11:30;7.70;;;1.45;;
18610;SDS011;9435;52.122;5.502;2023-03-13T11:14:12;6.07;;;1.77;;
18610;SDS011;9435;52.122;5.502;2023-03-13T11:16:44;7.50;;;1.63;;
18610;SDS011;9435;52.122;5.502;2023-03-13T11:22:06;9.57;;;1.63;;
18610;SDS011;9435;52.122;5.502;2023-03-13T11:24:56;4.80;;;1.30;;
18610;SDS011;9435;52.122;5.502;2023-03-13T11:27:35;5.88;;;1.27;;
18610;SDS011;9435;52.122;5.502;2023-03-13T11:30:08;7.50;;;1.67;;
18610;SDS011;9435;52.122;5.502;2023-03-13T11:32:48;5.15;;;1.27;;
18610;SDS011;9435;52.122;5.502;2023-03-13T11:35:21;5.43;;;1.38;;
18610;SDS011;9435;52.122;5.502;2023-03-13T11:38:08;5.22;;;1.40;;
18610;SDS011;9435;52.122;5.502;2023-03-13T11:40:44;5.10;;;1.25;;
18610;SDS011;9435;52.122;5.502;2023-03-13T11:43:22;7.63;;;1.80;;
18610;SDS011;9435;52.122;5.502;2023-03-13T11:46:12;6.63;;;1.42;;
18610;SDS011;9435;52.122;5.502;2023-03-13T11:48:54;5.18;;;1.15;;
18610;SDS011;9435;52.122;5.502;2023-03-13T11:51:47;4.93;;;1.75;;
18610;SDS011;9435;52.122;5.502;2023-03-13T11:57:17;5.45;;;1.60;;
18610;SDS011;9435;52.122;5.502;2023-03-13T11:59:57;6.75;;;1.20;;
18610;SDS011;9435;52.122;5.502;2023-03-13T12:02:39;6.85;;;1.50;;
18610;SDS011;9435;52.122;5.502;2023-03-13T12:05:11;5.60;;;1.88;;
18610;SDS011;9435;52.122;5.502;2023-03-13T12:07:44;13.88;;;1.77;;
18610;SDS011;9435;52.122;5.502;2023-03-13T12:10:18;4.30;;;1.05;;
18610;SDS011;9435;52.122;5.502;2023-03-13T12:12:53;5.25;;;1.35;;
18610;SDS011;9435;52.122;5.502;2023-03-13T12:15:27;8.57;;;1.50;;
18610;SDS011;9435;52.122;5.502;2023-03-13T12:17:58;7.03;;;1.50;;
18610;SDS011;9435;52.122;5.502;2023-03-13T12:20:30;7.00;;;1.25;;
18610;SDS011;9435;52.122;5.502;2023-03-13T12:23:07;8.32;;;1.60;;
18610;SDS011;9435;52.122;5.502;2023-03-13T12:25:46;8.77;;;1.45;;
18610;SDS011;9435;52.122;5.502;2023-03-13T12:28:24;7.75;;;1.63;;
18610;SDS011;9435;52.122;5.502;2023-03-13T12:30:59;7.95;;;1.52;;
18610;SDS011;9435;52.122;5.502;2023-03-13T12:33:34;6.72;;;1.35;;
18610;SDS011;9435;52.122;5.502;2023-03-13T12:36:05;5.45;;;1.20;;
18610;SDS011;9435;52.122;5.502;2023-03-13T12:38:36;4.10;;;1.17;;
18610;SDS011;9435;52.122;5.502;2023-03-13T12:41:14;9.57;;;1.60;;
18610;SDS011;9435;52.122;5.502;2023-03-13T12:43:46;8.27;;;1.67;;
18610;SDS011;9435;52.122;5.502;2023-03-13T12:46:20;9.30;;;1.77;;
18610;SDS011;9435;52.122;5.502;2023-03-13T12:49:24;10.63;;;1.73;;
18610;SDS011;9435;52.122;5.502;2023-03-13T12:52:23;7.00;;;1.50;;
18610;SDS011;9435;52.122;5.502;2023-03-13T12:55:30;11.18;;;1.73;;
18610;SDS011;9435;52.122;5.502;2023-03-13T12:58:21;9.88;;;1.75;;
18610;SDS011;9435;52.122;5.502;2023-03-13T13:00:54;7.53;;;1.63;;
18610;SDS011;9435;52.122;5.502;2023-03-13T13:03:29;8.95;;;1.67;;
18610;SDS011;9435;52.122;5.502;2023-03-13T13:06:07;10.07;;;1.60;;
18610;SDS011;9435;52.122;5.502;2023-03-13T13:08:37;9.35;;;1.95;;
18610;SDS011;9435;52.122;5.502;2023-03-13T13:17:20;9.98;;;1.88;;
18610;SDS011;9435;52.122;5.502;2023-03-13T13:19:57;11.52;;;1.90;;
18610;SDS011;9435;52.122;5.502;2023-03-13T13:22:46;8.43;;;1.85;;
18610;SDS011;9435;52.122;5.502;2023-03-13T13:25:28;8.00;;;1.70;;
18610;SDS011;9435;52.122;5.502;2023-03-13T13:28:09;8.38;;;1.40;;
18610;SDS011;9435;52.122;5.502;2023-03-13T13:30:54;12.35;;;2.20;;
18610;SDS011;9435;52.122;5.502;2023-03-13T13:33:37;7.50;;;1.70;;
18610;SDS011;9435;52.122;5.502;2023-03-13T13:39:20;9.63;;;1.63;;
18610;SDS011;9435;52.122;5.502;2023-03-13T13:45:25;14.75;;;2.22;;
18610;SDS011;9435;52.122;5.502;2023-03-13T13:53:44;12.73;;;2.47;;
18610;SDS011;9435;52.122;5.502;2023-03-13T13:56:31;19.80;;;2.30;;
18610;SDS011;9435;52.122;5.502;2023-03-13T14:02:13;15.90;;;2.92;;
18610;SDS011;9435;52.122;5.502;2023-03-13T14:04:43;10.48;;;2.30;;
18610;SDS011;9435;52.122;5.502;2023-03-13T14:07:15;15.90;;;2.65;;
18610;SDS011;9435;52.122;5.502;2023-03-13T14:09:47;14.55;;;2.22;;
18610;SDS011;9435;52.122;5.502;2023-03-13T14:12:27;10.38;;;2.25;;
18610;SDS011;9435;52.122;5.502;2023-03-13T14:15:06;16.45;;;2.50;;
18610;SDS011;9435;52.122;5.502;2023-03-13T14:17:44;15.40;;;2.42;;
18610;SDS011;9435;52.122;5.502;2023-03-13T14:20:17;16.02;;;2.63;;
18610;SDS011;9435;52.122;5.502;2023-03-13T14:22:49;17.77;;;2.90;;
18610;SDS011;9435;52.122;5.502;2023-03-13T14:25:19;17.67;;;3.03;;
18610;SDS011;9435;52.122;5.502;2023-03-13T14:27:47;16.90;;;2.70;;
18610;SDS011;9435;52.122;5.502;2023-03-13T14:30:17;13.00;;;2.08;;
18610;SDS011;9435;52.122;5.502;2023-03-13T14:32:45;14.77;;;2.35;;
18610;SDS011;9435;52.122;5.502;2023-03-13T14:35:14;16.50;;;2.35;;
18610;SDS011;9435;52.122;5.502;2023-03-13T14:37:44;14.45;;;2.78;;
18610;SDS011;9435;52.122;5.502;2023-03-13T14:40:20;15.15;;;2.67;;
18610;SDS011;9435;52.122;5.502;2023-03-13T14:42:50;17.00;;;2.70;;
18610;SDS011;9435;52.122;5.502;2023-03-13T14:45:24;13.65;;;2.63;;
18610;SDS011;9435;52.122;5.502;2023-03-13T14:47:54;17.48;;;3.05;;
18610;SDS011;9435;52.122;5.502;2023-03-13T14:50:27;14.20;;;2.38;;
18610;SDS011;9435;52.122;5.502;2023-03-13T14:52:54;14.15;;;2.10;;
18610;SDS011;9435;52.122;5.502;2023-03-13T14:55:31;16.05;;;2.70;;
18610;SDS011;9435;52.122;5.502;2023-03-13T14:58:00;17.05;;;2.50;;
18610;SDS011;9435;52.122;5.502;2023-03-13T15:00:31;14.02;;;2.70;;
18610;SDS011;9435;52.122;5.502;2023-03-13T15:03:12;16.60;;;2.55;;
18610;SDS011;9435;52.122;5.502;2023-03-13T15:08:48;17.00;;;2.85;;
18610;SDS011;9435;52.122;5.502;2023-03-13T15:11:34;17.65;;;2.60;;
18610;SDS011;9435;52.122;5.502;2023-03-13T15:17:01;16.08;;;2.88;;
18610;SDS011;9435;52.122;5.502;2023-03-13T15:19:29;14.27;;;2.58;;
18610;SDS011;9435;52.122;5.502;2023-03-13T15:21:56;16.75;;;2.90;;
18610;SDS011;9435;52.122;5.502;2023-03-13T15:24:24;16.63;;;2.65;;
18610;SDS011;9435;52.122;5.502;2023-03-13T15:26:52;17.08;;;2.75;;
18610;SDS011;9435;52.122;5.502;2023-03-13T15:29:19;21.13;;;2.83;;
18610;SDS011;9435;52.122;5.502;2023-03-13T15:31:46;15.75;;;2.75;;
18610;SDS011;9435;52.122;5.502;2023-03-13T15:34:14;20.17;;;2.95;;
18610;SDS011;9435;52.122;5.502;2023-03-13T15:36:41;17.10;;;2.45;;
18610;SDS011;9435;52.122;5.502;2023-03-13T15:39:10;17.77;;;3.20;;
18610;SDS011;9435;52.122;5.502;2023-03-13T15:41:41;15.23;;;2.70;;
18610;SDS011;9435;52.122;5.502;2023-03-13T15:44:09;12.50;;;2.38;;